sensor_id;sensor_type;location;lat;lon;timestamp;pressure;altitude;pressure_sealevel;temperature;humidity
41264;BME280;26998;48.714;9.414;2023-04-10T00:00:11;99790.63;;;3.60;100.00
41264;BME280;26998;48.714;9.414;2023-04-10T00:02:37;99806.75;;;3.57;100.00
41264;BME280;26998;48.714;9.414;2023-04-10T00:05:05;99824.44;;;3.57;100.00
41264;BME280;26998;48.714;9.414;2023-04-10T00:07:32;99810.91;;;3.50;100.00
41264;BME280;26998;48.714;9.414;2023-04-10T00:09:58;99828.63;;;3.59;100.00
41264;BME280;26998;48.714;9.414;2023-04-10T00:12:25;99822.75;;;3.56;100.00
41264;BME280;26998;48.714;9.414;2023-04-10T00:14:51;99842.47;;;3.52;100.00
41264;BME280;26998;48.714;9.414;2023-04-10T00:17:18;99836.34;;;3.51;100.00
41264;BME280;26998;48.714;9.414;2023-04-10T00:19:44;99830.16;;;3.41;100.00
41264;BME280;26998;48.714;9.414;2023-04-10T00:22:11;99838.47;;;3.36;100.00
41264;BME280;26998;48.714;9.414;2023-04-10T00:24:37;99835.38;;;3.31;100.00
41264;BME280;26998;48.714;9.414;2023-04-10T00:27:04;99845.38;;;3.28;100.00
41264;BME280;26998;48.714;9.414;2023-04-10T00:29:30;99853.91;;;3.20;100.00
41264;BME280;26998;48.714;9.414;2023-04-10T00:31:57;99865.81;;;3.14;100.00
41264;BME280;26998;48.714;9.414;2023-04-10T00:34:24;99863.81;;;3.07;100.00
41264;BME280;26998;48.714;9.414;2023-04-10T00:36:50;99876.44;;;3.03;100.00
41264;BME280;26998;48.714;9.414;2023-04-10T00:39:18;99880.53;;;2.96;100.00
41264;BME280;26998;48.714;9.414;2023-04-10T00:41:44;99888.81;;;2.91;100.00
41264;BME280;26998;48.714;9.414;2023-04-10T00:44:10;99896.88;;;2.90;100.00
41264;BME280;26998;48.714;9.414;2023-04-10T00:46:38;99895.31;;;2.87;100.00
41264;BME280;26998;48.714;9.414;2023-04-10T00:49:05;99898.91;;;2.86;100.00
41264;BME280;26998;48.714;9.414;2023-04-10T00:51:32;99906.97;;;2.85;100.00
41264;BME280;26998;48.714;9.414;2023-04-10T00:53:59;99918.25;;;2.87;100.00
41264;BME280;26998;48.714;9.414;2023-04-10T00:56:25;99917.78;;;2.93;100.00
41264;BME280;26998;48.714;9.414;2023-04-10T00:58:52;99917.03;;;2.91;100.00
41264;BME280;26998;48.714;9.414;2023-04-10T01:01:18;99907.44;;;2.90;100.00
41264;BME280;26998;48.714;9.414;2023-04-10T01:03:46;99900.50;;;2.77;100.00
41264;BME280;26998;48.714;9.414;2023-04-10T01:06:34;99892.09;;;2.72;100.00
41264;BME280;26998;48.714;9.414;2023-04-10T01:09:09;99901.94;;;2.70;100.00
41264;BME280;26998;48.714;9.414;2023-04-10T01:11:49;99911.91;;;2.67;100.00
41264;BME280;26998;48.714;9.414;2023-04-10T01:14:28;99912.50;;;2.70;100.00
41264;BME280;26998;48.714;9.414;2023-04-10T01:17:06;99924.13;;;2.79;100.00
41264;BME280;26998;48.714;9.414;2023-04-10T01:19:55;99919.47;;;2.71;100.00
41264;BME280;26998;48.714;9.414;2023-04-10T01:22:27;99919.22;;;2.63;100.00
41264;BME280;26998;48.714;9.414;2023-04-10T01:25:08;99929.66;;;2.65;100.00
41264;BME280;26998;48.714;9.414;2023-04-10T01:30:23;99939.03;;;2.58;100.00
41264;BME280;26998;48.714;9.414;2023-04-10T01:32:51;99947.19;;;2.54;100.00
41264;BME280;26998;48.714;9.414;2023-04-10T01:35:19;99949.81;;;2.54;100.00
41264;BME280;26998;48.714;9.414;2023-04-10T01:37:47;99955.34;;;2.51;100.00
41264;BME280;26998;48.714;9.414;2023-04-10T01:40:18;99965.06;;;2.51;100.00
41264;BME280;26998;48.714;9.414;2023-04-10T01:42:54;99963.38;;;2.50;100.00
41264;BME280;26998;48.714;9.414;2023-04-10T01:45:26;99958.22;;;2.48;100.00
41264;BME280;26998;48.714;9.414;2023-04-10T01:47:53;99955.94;;;2.44;100.00
41264;BME280;26998;48.714;9.414;2023-04-10T01:50:21;99974.19;;;2.47;100.00
41264;BME280;26998;48.714;9.414;2023-04-10T01:52:49;99965.78;;;2.42;100.00
41264;BME280;26998;48.714;9.414;2023-04-10T01:55:17;99962.63;;;2.37;100.00
41264;BME280;26998;48.714;9.414;2023-04-10T01:57:46;99974.53;;;2.31;100.00
41264;BME280;26998;48.714;9.414;2023-04-10T02:00:14;99993.09;;;2.29;100.00
41264;BME280;26998;48.714;9.414;2023-04-10T02:02:41;100000.03;;;2.30;100.00
41264;BME280;26998;48.714;9.414;2023-04-10T02:05:09;100017.56;;;2.31;100.00
41264;BME280;26998;48.714;9.414;2023-04-10T02:08:01;100021.66;;;2.36;100.00
41264;BME280;26998;48.714;9.414;2023-04-10T02:10:36;100021.03;;;2.32;100.00
41264;BME280;26998;48.714;9.414;2023-04-10T02:13:10;100027.38;;;2.29;100.00
41264;BME280;26998;48.714;9.414;2023-04-10T02:15:38;100017.53;;;2.20;100.00
41264;BME280;26998;48.714;9.414;2023-04-10T02:18:07;100019.56;;;2.17;100.00
41264;BME280;26998;48.714;9.414;2023-04-10T02:20:35;100025.06;;;2.14;100.00
41264;BME280;26998;48.714;9.414;2023-04-10T02:23:02;100025.31;;;2.11;100.00
41264;BME280;26998;48.714;9.414;2023-04-10T02:25:33;100024.34;;;2.12;100.00
41264;BME280;26998;48.714;9.414;2023-04-10T02:28:07;100029.84;;;2.08;100.00
41264;BME280;26998;48.714;9.414;2023-04-10T02:30:34;100032.09;;;2.02;100.00
41264;BME280;26998;48.714;9.414;2023-04-10T02:33:00;100028.59;;;1.90;100.00
41264;BME280;26998;48.714;9.414;2023-04-10T02:35:27;100042.25;;;1.84;100.00
41264;BME280;26998;48.714;9.414;2023-04-10T02:37:54;100053.38;;;1.88;100.00
41264;BME280;26998;48.714;9.414;2023-04-10T02:40:20;100052.78;;;1.84;100.00
41264;BME280;26998;48.714;9.414;2023-04-10T02:42:46;100058.28;;;1.81;100.00
41264;BME280;26998;48.714;9.414;2023-04-10T02:45:14;100056.69;;;1.78;100.00
41264;BME280;26998;48.714;9.414;2023-04-10T02:47:40;100055.13;;;1.76;100.00
41264;BME280;26998;48.714;9.414;2023-04-10T02:50:07;100049.03;;;1.75;100.00
41264;BME280;26998;48.714;9.414;2023-04-10T02:52:34;100042.03;;;1.74;100.00
41264;BME280;26998;48.714;9.414;2023-04-10T02:55:00;100036.56;;;1.77;100.00
41264;BME280;26998;48.714;9.414;2023-04-10T02:57:27;100058.16;;;1.82;100.00
41264;BME280;26998;48.714;9.414;2023-04-10T02:59:53;100057.69;;;1.89;100.00
41264;BME280;26998;48.714;9.414;2023-04-10T03:02:20;100070.19;;;1.98;100.00
41264;BME280;26998;48.714;9.414;2023-04-10T03:04:47;100056.06;;;1.99;100.00
41264;BME280;26998;48.714;9.414;2023-04-10T03:07:13;100053.31;;;2.00;100.00
41264;BME280;26998;48.714;9.414;2023-04-10T03:09:40;100046.25;;;2.01;100.00
41264;BME280;26998;48.714;9.414;2023-04-10T03:12:06;100043.84;;;1.98;100.00
41264;BME280;26998;48.714;9.414;2023-04-10T03:14:33;100028.97;;;1.97;100.00
41264;BME280;26998;48.714;9.414;2023-04-10T03:17:00;100032.47;;;1.97;100.00
41264;BME280;26998;48.714;9.414;2023-04-10T03:19:27;100034.13;;;1.98;100.00
41264;BME280;26998;48.714;9.414;2023-04-10T03:21:54;100031.00;;;1.93;100.00
41264;BME280;26998;48.714;9.414;2023-04-10T03:24:20;100032.09;;;2.02;100.00
41264;BME280;26998;48.714;9.414;2023-04-10T03:26:47;100031.84;;;1.94;100.00
41264;BME280;26998;48.714;9.414;2023-04-10T03:29:14;100030.03;;;1.94;100.00
41264;BME280;26998;48.714;9.414;2023-04-10T03:31:41;100027.41;;;1.94;100.00
41264;BME280;26998;48.714;9.414;2023-04-10T03:34:07;100025.44;;;1.85;100.00
41264;BME280;26998;48.714;9.414;2023-04-10T03:36:34;100014.63;;;1.77;100.00
41264;BME280;26998;48.714;9.414;2023-04-10T03:39:00;100022.44;;;1.78;100.00
41264;BME280;26998;48.714;9.414;2023-04-10T03:41:27;100017.50;;;1.74;100.00
41264;BME280;26998;48.714;9.414;2023-04-10T03:43:53;100023.72;;;1.73;100.00
41264;BME280;26998;48.714;9.414;2023-04-10T03:46:20;100029.22;;;1.70;100.00
41264;BME280;26998;48.714;9.414;2023-04-10T03:48:46;100041.44;;;1.71;100.00
41264;BME280;26998;48.714;9.414;2023-04-10T03:51:13;100049.25;;;1.72;100.00
41264;BME280;26998;48.714;9.414;2023-04-10T03:53:39;100047.88;;;1.67;100.00
41264;BME280;26998;48.714;9.414;2023-04-10T03:56:07;100056.84;;;1.64;100.00
41264;BME280;26998;48.714;9.414;2023-04-10T03:58:33;100066.16;;;1.57;100.00
41264;BME280;26998;48.714;9.414;2023-04-10T04:01:00;100075.34;;;1.51;100.00
41264;BME280;26998;48.714;9.414;2023-04-10T04:03:26;100085.38;;;1.46;100.00
41264;BME280;26998;48.714;9.414;2023-04-10T04:05:53;100091.50;;;1.47;100.00
41264;BME280;26998;48.714;9.414;2023-04-10T04:08:20;100095.81;;;1.48;100.00
41264;BME280;26998;48.714;9.414;2023-04-10T04:10:47;100090.41;;;1.49;100.00
41264;BME280;26998;48.714;9.414;2023-04-10T04:13:13;100085.38;;;1.46;100.00
41264;BME280;26998;48.714;9.414;2023-04-10T04:15:40;100094.31;;;1.56;100.00
41264;BME280;26998;48.714;9.414;2023-04-10T04:18:07;100082.63;;;1.48;100.00
41264;BME280;26998;48.714;9.414;2023-04-10T04:20:34;100076.56;;;1.34;100.00
41264;BME280;26998;48.714;9.414;2023-04-10T04:23:00;100086.25;;;1.34;100.00
41264;BME280;26998;48.714;9.414;2023-04-10T04:25:27;100094.88;;;1.36;100.00
41264;BME280;26998;48.714;9.414;2023-04-10T04:27:53;100093.69;;;1.40;100.00
41264;BME280;26998;48.714;9.414;2023-04-10T04:30:19;100088.44;;;1.40;100.00
41264;BME280;26998;48.714;9.414;2023-04-10T04:32:46;100085.81;;;1.40;100.00
41264;BME280;26998;48.714;9.414;2023-04-10T04:35:12;100093.63;;;1.42;100.00
41264;BME280;26998;48.714;9.414;2023-04-10T04:37:39;100097.09;;;1.42;100.00
41264;BME280;26998;48.714;9.414;2023-04-10T04:40:06;100105.72;;;1.44;100.00
41264;BME280;26998;48.714;9.414;2023-04-10T04:42:32;100113.50;;;1.46;100.00
41264;BME280;26998;48.714;9.414;2023-04-10T04:44:59;100105.19;;;1.39;100.00
41264;BME280;26998;48.714;9.414;2023-04-10T04:47:25;100106.78;;;1.42;100.00
41264;BME280;26998;48.714;9.414;2023-04-10T04:49:52;100100.56;;;1.43;100.00
41264;BME280;26998;48.714;9.414;2023-04-10T04:52:18;100089.91;;;1.44;100.00
41264;BME280;26998;48.714;9.414;2023-04-10T04:54:45;100082.63;;;1.48;100.00
41264;BME280;26998;48.714;9.414;2023-04-10T04:57:11;100070.91;;;1.52;100.00
41264;BME280;26998;48.714;9.414;2023-04-10T04:59:38;100079.28;;;1.70;100.00
41264;BME280;26998;48.714;9.414;2023-04-10T05:02:05;100061.63;;;1.83;100.00
41264;BME280;26998;48.714;9.414;2023-04-10T05:04:31;100051.00;;;1.96;100.00
41264;BME280;26998;48.714;9.414;2023-04-10T05:06:58;100028.63;;;2.01;100.00
41264;BME280;26998;48.714;9.414;2023-04-10T05:09:24;100005.03;;;2.00;100.00
41264;BME280;26998;48.714;9.414;2023-04-10T05:11:51;99984.03;;;1.98;100.00
41264;BME280;26998;48.714;9.414;2023-04-10T05:14:18;99981.47;;;1.85;100.00
41264;BME280;26998;48.714;9.414;2023-04-10T05:16:45;99982.16;;;1.76;100.00
41264;BME280;26998;48.714;9.414;2023-04-10T05:19:11;100003.75;;;1.81;100.00
41264;BME280;26998;48.714;9.414;2023-04-10T05:21:38;99999.47;;;1.92;100.00
41264;BME280;26998;48.714;9.414;2023-04-10T05:24:04;99997.81;;;2.02;100.00
41264;BME280;26998;48.714;9.414;2023-04-10T05:26:31;99978.66;;;2.11;100.00
41264;BME280;26998;48.714;9.414;2023-04-10T05:28:57;99973.66;;;2.19;100.00
41264;BME280;26998;48.714;9.414;2023-04-10T05:31:24;99973.09;;;2.38;100.00
41264;BME280;26998;48.714;9.414;2023-04-10T05:33:50;99956.19;;;2.63;100.00
41264;BME280;26998;48.714;9.414;2023-04-10T05:36:17;99943.09;;;2.84;100.00
41264;BME280;26998;48.714;9.414;2023-04-10T05:38:43;99906.69;;;2.99;100.00
41264;BME280;26998;48.714;9.414;2023-04-10T05:41:10;99871.66;;;2.97;100.00
41264;BME280;26998;48.714;9.414;2023-04-10T05:43:36;99853.50;;;3.04;100.00
41264;BME280;26998;48.714;9.414;2023-04-10T05:46:04;99858.59;;;3.28;100.00
41264;BME280;26998;48.714;9.414;2023-04-10T05:48:31;99845.50;;;3.47;100.00
41264;BME280;26998;48.714;9.414;2023-04-10T05:50:57;99815.84;;;3.64;100.00
41264;BME280;26998;48.714;9.414;2023-04-10T05:53:28;99789.22;;;3.77;100.00
41264;BME280;26998;48.714;9.414;2023-04-10T05:55:55;99774.06;;;3.89;100.00
41264;BME280;26998;48.714;9.414;2023-04-10T05:58:21;99766.00;;;4.21;100.00
41264;BME280;26998;48.714;9.414;2023-04-10T06:00:48;99749.59;;;4.37;100.00
41264;BME280;26998;48.714;9.414;2023-04-10T06:03:15;99724.69;;;4.59;100.00
41264;BME280;26998;48.714;9.414;2023-04-10T06:05:41;99691.38;;;4.76;100.00
41264;BME280;26998;48.714;9.414;2023-04-10T06:08:08;99677.16;;;4.86;100.00
41264;BME280;26998;48.714;9.414;2023-04-10T06:10:35;99666.94;;;5.01;100.00
41264;BME280;26998;48.714;9.414;2023-04-10T06:13:02;99649.91;;;5.23;100.00
41264;BME280;26998;48.714;9.414;2023-04-10T06:15:29;99643.88;;;5.59;100.00
41264;BME280;26998;48.714;9.414;2023-04-10T06:17:55;99609.84;;;5.82;100.00
41264;BME280;26998;48.714;9.414;2023-04-10T06:20:22;99523.63;;;5.95;100.00
41264;BME280;26998;48.714;9.414;2023-04-10T06:22:49;99428.03;;;6.31;100.00
41264;BME280;26998;48.714;9.414;2023-04-10T06:25:15;99403.31;;;6.65;100.00
41264;BME280;26998;48.714;9.414;2023-04-10T06:27:42;99362.22;;;6.93;100.00
41264;BME280;26998;48.714;9.414;2023-04-10T06:30:09;99337.03;;;7.14;100.00
41264;BME280;26998;48.714;9.414;2023-04-10T06:32:36;99317.75;;;7.28;100.00
41264;BME280;26998;48.714;9.414;2023-04-10T06:35:02;99323.59;;;7.48;100.00
41264;BME280;26998;48.714;9.414;2023-04-10T06:37:30;99314.09;;;7.46;100.00
41264;BME280;26998;48.714;9.414;2023-04-10T06:40:05;99312.28;;;7.54;100.00
41264;BME280;26998;48.714;9.414;2023-04-10T06:42:32;99300.13;;;7.76;100.00
41264;BME280;26998;48.714;9.414;2023-04-10T06:44:59;99288.94;;;7.89;100.00
41264;BME280;26998;48.714;9.414;2023-04-10T06:47:25;99298.09;;;7.95;100.00
41264;BME280;26998;48.714;9.414;2023-04-10T06:49:52;99286.91;;;7.99;100.00
41264;BME280;26998;48.714;9.414;2023-04-10T06:52:19;99296.41;;;8.02;100.00
41264;BME280;26998;48.714;9.414;2023-04-10T06:54:45;99287.03;;;8.14;100.00
41264;BME280;26998;48.714;9.414;2023-04-10T06:57:12;99294.97;;;8.22;100.00
41264;BME280;26998;48.714;9.414;2023-04-10T06:59:39;99282.44;;;8.47;99.22
41264;BME280;26998;48.714;9.414;2023-04-10T07:02:05;99284.78;;;8.50;100.00
41264;BME280;26998;48.714;9.414;2023-04-10T07:04:33;99280.16;;;8.67;99.12
41264;BME280;26998;48.714;9.414;2023-04-10T07:06:59;99285.88;;;8.87;96.40
41264;BME280;26998;48.714;9.414;2023-04-10T07:09:26;99273.91;;;8.83;97.97
41264;BME280;26998;48.714;9.414;2023-04-10T07:11:52;99277.59;;;9.05;98.95
41264;BME280;26998;48.714;9.414;2023-04-10T07:14:19;99282.84;;;8.90;96.23
41264;BME280;26998;48.714;9.414;2023-04-10T07:16:46;99278.94;;;9.24;95.57
41264;BME280;26998;48.714;9.414;2023-04-10T07:19:12;99275.41;;;9.32;93.04
41264;BME280;26998;48.714;9.414;2023-04-10T07:21:39;99281.38;;;9.34;94.35
41264;BME280;26998;48.714;9.414;2023-04-10T07:24:05;99281.00;;;9.37;92.86
41264;BME280;26998;48.714;9.414;2023-04-10T07:26:32;99272.97;;;9.60;92.37
41264;BME280;26998;48.714;9.414;2023-04-10T07:28:58;99275.88;;;9.88;92.95
41264;BME280;26998;48.714;9.414;2023-04-10T07:31:25;99269.41;;;10.12;90.57
41264;BME280;26998;48.714;9.414;2023-04-10T07:33:51;99274.03;;;10.33;86.02
41264;BME280;26998;48.714;9.414;2023-04-10T07:36:18;99276.16;;;10.37;84.51
41264;BME280;26998;48.714;9.414;2023-04-10T07:38:44;99274.00;;;10.62;85.21
41264;BME280;26998;48.714;9.414;2023-04-10T07:41:11;99271.59;;;10.89;81.77
41264;BME280;26998;48.714;9.414;2023-04-10T07:43:37;99274.13;;;11.12;81.89
41264;BME280;26998;48.714;9.414;2023-04-10T07:46:04;99277.59;;;11.34;76.22
41264;BME280;26998;48.714;9.414;2023-04-10T07:48:30;99279.50;;;10.97;73.68
41264;BME280;26998;48.714;9.414;2023-04-10T07:50:57;99280.03;;;11.07;75.22
41264;BME280;26998;48.714;9.414;2023-04-10T07:53:24;99279.00;;;11.08;73.31
41264;BME280;26998;48.714;9.414;2023-04-10T07:55:50;99276.91;;;11.25;70.68
41264;BME280;26998;48.714;9.414;2023-04-10T07:58:16;99287.31;;;11.63;70.15
41264;BME280;26998;48.714;9.414;2023-04-10T08:00:43;99285.94;;;11.74;64.07
41264;BME280;26998;48.714;9.414;2023-04-10T08:03:11;99283.25;;;11.74;66.24
41264;BME280;26998;48.714;9.414;2023-04-10T08:05:38;99281.84;;;11.78;63.98
41264;BME280;26998;48.714;9.414;2023-04-10T08:08:04;99275.97;;;12.24;60.81
41264;BME280;26998;48.714;9.414;2023-04-10T08:10:31;99276.91;;;12.51;59.91
41264;BME280;26998;48.714;9.414;2023-04-10T08:12:57;99268.19;;;12.90;60.66
41264;BME280;26998;48.714;9.414;2023-04-10T08:15:24;99270.06;;;12.42;58.62
41264;BME280;26998;48.714;9.414;2023-04-10T08:17:50;99266.84;;;12.60;59.77
41264;BME280;26998;48.714;9.414;2023-04-10T08:20:17;99265.63;;;12.56;58.29
41264;BME280;26998;48.714;9.414;2023-04-10T08:22:44;99264.00;;;12.68;60.43
41264;BME280;26998;48.714;9.414;2023-04-10T08:25:10;99267.22;;;13.18;54.86
41264;BME280;26998;48.714;9.414;2023-04-10T08:27:37;99267.78;;;13.07;54.41
41264;BME280;26998;48.714;9.414;2023-04-10T08:30:04;99261.69;;;13.39;51.63
41264;BME280;26998;48.714;9.414;2023-04-10T08:32:31;99259.56;;;13.22;51.51
41264;BME280;26998;48.714;9.414;2023-04-10T08:34:57;99264.78;;;13.50;52.14
41264;BME280;26998;48.714;9.414;2023-04-10T08:37:25;99263.53;;;13.66;50.59
41264;BME280;26998;48.714;9.414;2023-04-10T08:39:52;99261.81;;;13.05;52.13
41264;BME280;26998;48.714;9.414;2023-04-10T08:42:18;99260.78;;;13.19;51.08
41264;BME280;26998;48.714;9.414;2023-04-10T08:44:47;99254.19;;;13.22;50.54
41264;BME280;26998;48.714;9.414;2023-04-10T08:47:17;99260.66;;;13.27;50.76
41264;BME280;26998;48.714;9.414;2023-04-10T08:49:52;99265.59;;;13.37;50.76
41264;BME280;26998;48.714;9.414;2023-04-10T08:52:21;99252.16;;;13.57;50.04
41264;BME280;26998;48.714;9.414;2023-04-10T08:54:53;99260.41;;;13.75;48.47
41264;BME280;26998;48.714;9.414;2023-04-10T08:57:19;99256.25;;;13.79;48.33
41264;BME280;26998;48.714;9.414;2023-04-10T08:59:47;99255.06;;;13.69;49.59
41264;BME280;26998;48.714;9.414;2023-04-10T09:02:14;99258.72;;;13.94;47.30
41264;BME280;26998;48.714;9.414;2023-04-10T09:04:51;99246.34;;;13.86;47.51
41264;BME280;26998;48.714;9.414;2023-04-10T09:07:18;99248.63;;;13.90;45.96
41264;BME280;26998;48.714;9.414;2023-04-10T09:09:44;99242.34;;;14.16;45.68
41264;BME280;26998;48.714;9.414;2023-04-10T09:12:12;99252.34;;;14.53;44.97
41264;BME280;26998;48.714;9.414;2023-04-10T09:14:39;99252.59;;;14.52;44.66
41264;BME280;26998;48.714;9.414;2023-04-10T09:17:20;99245.78;;;14.36;45.96
41264;BME280;26998;48.714;9.414;2023-04-10T09:19:48;99242.44;;;14.41;44.89
41264;BME280;26998;48.714;9.414;2023-04-10T09:22:15;99237.44;;;14.96;44.74
41264;BME280;26998;48.714;9.414;2023-04-10T09:24:44;99240.63;;;14.79;42.87
41264;BME280;26998;48.714;9.414;2023-04-10T09:27:31;99245.59;;;15.14;42.53
41264;BME280;26998;48.714;9.414;2023-04-10T09:29:58;99239.59;;;14.81;43.06
41264;BME280;26998;48.714;9.414;2023-04-10T09:32:42;99232.97;;;14.83;40.92
41264;BME280;26998;48.714;9.414;2023-04-10T09:35:10;99235.56;;;14.96;41.78
41264;BME280;26998;48.714;9.414;2023-04-10T09:37:38;99236.22;;;15.23;40.95
41264;BME280;26998;48.714;9.414;2023-04-10T09:40:18;99236.66;;;15.20;39.21
41264;BME280;26998;48.714;9.414;2023-04-10T09:42:45;99242.19;;;15.25;39.79
41264;BME280;26998;48.714;9.414;2023-04-10T09:45:12;99237.41;;;15.28;39.17
41264;BME280;26998;48.714;9.414;2023-04-10T09:47:39;99223.13;;;15.52;38.73
41264;BME280;26998;48.714;9.414;2023-04-10T09:50:06;99222.25;;;15.08;39.11
41264;BME280;26998;48.714;9.414;2023-04-10T09:52:33;99217.44;;;15.60;38.08
41264;BME280;26998;48.714;9.414;2023-04-10T09:55:03;99210.66;;;16.01;36.81
41264;BME280;26998;48.714;9.414;2023-04-10T09:57:33;99200.00;;;16.25;37.02
41264;BME280;26998;48.714;9.414;2023-04-10T10:00:02;99201.06;;;16.05;34.99
41264;BME280;26998;48.714;9.414;2023-04-10T10:02:30;99200.16;;;16.11;34.64
41264;BME280;26998;48.714;9.414;2023-04-10T10:04:57;99189.56;;;15.73;33.70
41264;BME280;26998;48.714;9.414;2023-04-10T10:07:24;99204.81;;;15.86;33.03
41264;BME280;26998;48.714;9.414;2023-04-10T10:09:51;99183.91;;;16.00;32.73
41264;BME280;26998;48.714;9.414;2023-04-10T10:12:21;99187.19;;;16.20;32.71
41264;BME280;26998;48.714;9.414;2023-04-10T10:15:06;99172.56;;;16.28;32.13
41264;BME280;26998;48.714;9.414;2023-04-10T10:17:38;99175.78;;;16.36;32.22
41264;BME280;26998;48.714;9.414;2023-04-10T10:20:10;99166.88;;;16.48;32.59
41264;BME280;26998;48.714;9.414;2023-04-10T10:22:36;99169.75;;;16.53;31.93
41264;BME280;26998;48.714;9.414;2023-04-10T10:25:04;99156.75;;;16.61;30.89
41264;BME280;26998;48.714;9.414;2023-04-10T10:27:30;99160.81;;;16.52;30.75
41264;BME280;26998;48.714;9.414;2023-04-10T10:29:59;99153.00;;;16.62;30.42
41264;BME280;26998;48.714;9.414;2023-04-10T10:32:30;99164.06;;;17.15;30.06
41264;BME280;26998;48.714;9.414;2023-04-10T10:34:59;99160.63;;;16.96;30.26
41264;BME280;26998;48.714;9.414;2023-04-10T10:37:28;99153.94;;;17.10;30.35
41264;BME280;26998;48.714;9.414;2023-04-10T10:40:06;99144.19;;;16.97;29.51
41264;BME280;26998;48.714;9.414;2023-04-10T10:45:33;99139.41;;;17.23;30.82
41264;BME280;26998;48.714;9.414;2023-04-10T10:48:03;99139.28;;;17.41;30.75
41264;BME280;26998;48.714;9.414;2023-04-10T10:50:55;99133.66;;;17.07;30.05
41264;BME280;26998;48.714;9.414;2023-04-10T10:58:48;99118.38;;;18.12;29.34
41264;BME280;26998;48.714;9.414;2023-04-10T11:01:22;99105.41;;;17.74;29.32
41264;BME280;26998;48.714;9.414;2023-04-10T11:03:48;99111.78;;;17.80;29.97
41264;BME280;26998;48.714;9.414;2023-04-10T11:06:17;99097.31;;;17.62;29.82
41264;BME280;26998;48.714;9.414;2023-04-10T11:08:45;99094.59;;;17.62;29.59
41264;BME280;26998;48.714;9.414;2023-04-10T11:11:22;99096.53;;;18.02;28.54
41264;BME280;26998;48.714;9.414;2023-04-10T11:16:16;99083.19;;;17.84;28.86
41264;BME280;26998;48.714;9.414;2023-04-10T11:21:22;99088.59;;;17.84;29.16
41264;BME280;26998;48.714;9.414;2023-04-10T11:29:03;99077.72;;;18.07;28.69
41264;BME280;26998;48.714;9.414;2023-04-10T11:31:29;99078.13;;;17.87;29.31
41264;BME280;26998;48.714;9.414;2023-04-10T11:36:23;99069.34;;;17.68;29.93
41264;BME280;26998;48.714;9.414;2023-04-10T11:38:58;99081.41;;;17.89;27.01
41264;BME280;26998;48.714;9.414;2023-04-10T11:41:35;99085.00;;;18.35;24.79
41264;BME280;26998;48.714;9.414;2023-04-10T11:44:06;99079.94;;;18.56;24.42
41264;BME280;26998;48.714;9.414;2023-04-10T11:46:37;99088.31;;;18.54;23.70
41264;BME280;26998;48.714;9.414;2023-04-10T11:49:05;99091.88;;;18.43;24.18
41264;BME280;26998;48.714;9.414;2023-04-10T11:51:32;99089.53;;;18.18;24.12
41264;BME280;26998;48.714;9.414;2023-04-10T11:54:09;99080.75;;;18.11;24.38
41264;BME280;26998;48.714;9.414;2023-04-10T11:56:38;99081.75;;;18.21;24.31
41264;BME280;26998;48.714;9.414;2023-04-10T11:59:05;99079.50;;;18.76;23.91
41264;BME280;26998;48.714;9.414;2023-04-10T12:01:32;99078.97;;;18.62;23.95
41264;BME280;26998;48.714;9.414;2023-04-10T12:03:59;99078.34;;;18.26;23.73
41264;BME280;26998;48.714;9.414;2023-04-10T12:06:26;99074.69;;;18.49;23.85
41264;BME280;26998;48.714;9.414;2023-04-10T12:08:53;99070.41;;;18.36;23.79
41264;BME280;26998;48.714;9.414;2023-04-10T12:11:22;99073.63;;;18.67;23.76
41264;BME280;26998;48.714;9.414;2023-04-10T12:13:55;99061.91;;;18.78;23.44
41264;BME280;26998;48.714;9.414;2023-04-10T12:16:23;99060.56;;;18.47;23.57
41264;BME280;26998;48.714;9.414;2023-04-10T12:18:50;99045.38;;;18.00;24.84
41264;BME280;26998;48.714;9.414;2023-04-10T12:21:16;99035.81;;;18.10;25.54
41264;BME280;26998;48.714;9.414;2023-04-10T12:23:43;99024.75;;;17.94;24.98
41264;BME280;26998;48.714;9.414;2023-04-10T12:26:15;99031.66;;;18.19;26.00
41264;BME280;26998;48.714;9.414;2023-04-10T12:28:50;99037.91;;;18.19;25.54
41264;BME280;26998;48.714;9.414;2023-04-10T12:31:17;99036.44;;;18.00;25.32
41264;BME280;26998;48.714;9.414;2023-04-10T12:33:45;99020.06;;;18.52;25.11
41264;BME280;26998;48.714;9.414;2023-04-10T12:36:21;99024.34;;;18.48;25.58
41264;BME280;26998;48.714;9.414;2023-04-10T12:38:49;99016.69;;;18.62;25.21
41264;BME280;26998;48.714;9.414;2023-04-10T12:41:23;99016.31;;;18.87;25.72
41264;BME280;26998;48.714;9.414;2023-04-10T12:43:52;99011.50;;;19.11;25.86
41264;BME280;26998;48.714;9.414;2023-04-10T12:46:26;99010.56;;;18.66;25.96
41264;BME280;26998;48.714;9.414;2023-04-10T12:48:54;99017.78;;;18.95;25.58
41264;BME280;26998;48.714;9.414;2023-04-10T12:51:47;99017.28;;;18.98;25.87
41264;BME280;26998;48.714;9.414;2023-04-10T12:54:32;98998.38;;;19.42;25.23
41264;BME280;26998;48.714;9.414;2023-04-10T12:56:59;99009.34;;;18.57;25.48
41264;BME280;26998;48.714;9.414;2023-04-10T12:59:28;99003.50;;;18.32;26.46
41264;BME280;26998;48.714;9.414;2023-04-10T13:01:54;99003.25;;;18.50;26.65
41264;BME280;26998;48.714;9.414;2023-04-10T13:04:22;98995.97;;;18.51;26.51
41264;BME280;26998;48.714;9.414;2023-04-10T13:06:48;98982.25;;;18.91;25.60
41264;BME280;26998;48.714;9.414;2023-04-10T13:09:15;98979.63;;;18.29;26.00
41264;BME280;26998;48.714;9.414;2023-04-10T13:11:42;98982.09;;;18.47;26.17
41264;BME280;26998;48.714;9.414;2023-04-10T13:14:10;98982.53;;;17.93;26.17
41264;BME280;26998;48.714;9.414;2023-04-10T13:16:37;98974.94;;;18.41;27.11
41264;BME280;26998;48.714;9.414;2023-04-10T13:19:04;98968.78;;;18.12;25.86
41264;BME280;26998;48.714;9.414;2023-04-10T13:21:30;98975.66;;;18.03;25.98
41264;BME280;26998;48.714;9.414;2023-04-10T13:23:57;98971.66;;;18.05;25.60
41264;BME280;26998;48.714;9.414;2023-04-10T13:26:24;98967.09;;;18.22;26.20